createdAt,value
2023-03-02T00:00:40.022Z,31.80
2023-03-02T00:04:07.283Z,32.40
2023-03-02T00:06:50.498Z,31.80
2023-03-02T00:09:56.104Z,31.30
2023-03-02T00:13:04.536Z,31.20
2023-03-02T00:16:15.754Z,30.20
2023-03-02T00:19:53.335Z,30.90
2023-03-02T00:23:23.212Z,34.00
2023-03-02T00:27:11.994Z,31.50
2023-03-02T00:30:33.841Z,31.00
2023-03-02T00:33:44.884Z,30.50
2023-03-02T00:36:45.600Z,31.70
2023-03-02T00:39:47.910Z,30.30
2023-03-02T00:43:16.608Z,32.00
2023-03-02T00:46:29.213Z,30.20
2023-03-02T00:49:40.843Z,33.20
2023-03-02T00:52:49.955Z,32.90
2023-03-02T00:55:41.167Z,29.70
2023-03-02T00:58:32.257Z,31.40
2023-03-02T01:01:38.699Z,31.90
2023-03-02T01:04:49.603Z,31.40
2023-03-02T01:08:37.106Z,31.30
2023-03-02T01:11:55.676Z,32.50
2023-03-02T01:15:24.046Z,32.70
2023-03-02T01:18:34.439Z,32.30
2023-03-02T01:22:09.159Z,31.70
2023-03-02T01:25:39.739Z,31.60
2023-03-02T01:29:06.444Z,30.50
2023-03-02T01:32:37.494Z,30.50
2023-03-02T01:35:39.189Z,31.20
2023-03-02T01:39:28.041Z,31.00
2023-03-02T01:42:09.325Z,32.10
2023-03-02T01:45:56.532Z,31.00
2023-03-02T01:49:23.824Z,32.00
2023-03-02T01:52:10.452Z,31.60
2023-03-02T01:55:24.224Z,31.40
2023-03-02T01:58:25.740Z,32.20
2023-03-02T02:01:29.950Z,31.40
2023-03-02T02:04:58.968Z,30.00
2023-03-02T02:08:30.900Z,25.80
2023-03-02T02:11:29.330Z,24.10
2023-03-02T02:14:20.480Z,23.80
2023-03-02T02:16:48.839Z,25.20
2023-03-02T02:20:55.730Z,24.50
2023-03-02T02:24:36.078Z,25.50
2023-03-02T02:28:02.273Z,25.70
2023-03-02T02:30:45.536Z,26.10
2023-03-02T02:33:35.297Z,24.50
2023-03-02T02:36:45.500Z,24.70
2023-03-02T02:40:34.260Z,25.90
2023-03-02T02:44:23.016Z,25.40
2023-03-02T02:48:02.611Z,25.10
2023-03-02T02:51:31.306Z,25.60
2023-03-02T02:54:19.492Z,25.20
2023-03-02T02:57:51.893Z,24.90
2023-03-02T03:01:03.285Z,24.30
2023-03-02T03:04:14.628Z,24.40
2023-03-02T03:07:24.712Z,25.30
2023-03-02T03:11:00.581Z,23.70
2023-03-02T03:14:18.531Z,23.70
2023-03-02T03:17:30.257Z,23.00
2023-03-02T03:20:42.692Z,24.30
2023-03-02T03:23:43.357Z,23.80
2023-03-02T03:26:36.448Z,23.50
2023-03-02T03:30:09.213Z,24.10
2023-03-02T03:33:14.315Z,21.90
2023-03-02T03:35:47.957Z,22.70
2023-03-02T03:38:49.706Z,23.30
2023-03-02T03:41:20.929Z,20.90
2023-03-02T03:44:55.183Z,22.30
2023-03-02T03:48:00.545Z,22.80
2023-03-02T03:51:02.380Z,21.40
2023-03-02T03:53:59.925Z,21.00
2023-03-02T03:57:34.981Z,20.40
2023-03-02T04:00:55.166Z,20.10
2023-03-02T04:04:24.791Z,20.30
2023-03-02T04:07:33.946Z,20.70
2023-03-02T04:11:02.564Z,22.00
2023-03-02T04:14:14.200Z,22.20
2023-03-02T04:17:25.849Z,22.70
2023-03-02T04:20:54.475Z,21.40
2023-03-02T04:24:25.682Z,21.50
2023-03-02T04:27:53.811Z,20.90
2023-03-02T04:31:03.380Z,21.80
2023-03-02T04:34:14.745Z,21.40
2023-03-02T04:37:44.944Z,21.60
2023-03-02T04:40:33.182Z,21.90
2023-03-02T04:44:11.783Z,22.80
2023-03-02T04:47:39.122Z,23.30
2023-03-02T04:51:11.553Z,22.90
2023-03-02T04:54:22.112Z,23.90
2023-03-02T04:57:50.790Z,22.80
2023-03-02T05:01:39.141Z,22.60
2023-03-02T05:05:09.495Z,22.90
2023-03-02T05:08:57.071Z,21.80
2023-03-02T05:12:19.124Z,21.10
2023-03-02T05:15:10.441Z,21.90
2023-03-02T05:18:40.097Z,21.20
2023-03-02T05:22:04.118Z,21.60
2023-03-02T05:25:03.686Z,22.60
2023-03-02T05:27:36.872Z,22.30
2023-03-02T05:30:42.504Z,23.10
2023-03-02T05:34:21.164Z,21.10
2023-03-02T05:36:57.068Z,24.80
2023-03-02T05:39:57.310Z,22.80
2023-03-02T05:43:36.062Z,23.40
2023-03-02T05:46:46.815Z,23.40
2023-03-02T05:50:18.281Z,26.80
2023-03-02T05:53:49.155Z,26.80
2023-03-02T05:56:50.305Z,28.30
2023-03-02T06:00:01.442Z,29.10
2023-03-02T06:03:39.187Z,30.50
2023-03-02T06:06:59.013Z,30.60
2023-03-02T06:10:41.791Z,26.10
2023-03-02T06:13:25.822Z,32.00
2023-03-02T06:16:22.137Z,32.90
2023-03-02T06:19:23.591Z,34.10
2023-03-02T06:22:42.095Z,33.00
2023-03-02T06:25:35.894Z,32.60
2023-03-02T06:29:04.615Z,32.50
2023-03-02T06:32:00.971Z,33.60
2023-03-02T06:37:52.734Z,32.90
2023-03-02T06:41:34.403Z,35.50
2023-03-02T06:44:45.991Z,35.30
2023-03-02T06:48:04.497Z,34.50
2023-03-02T06:51:05.358Z,36.70
2023-03-02T06:53:49.756Z,34.40
2023-03-02T06:56:41.212Z,34.50
2023-03-02T06:59:32.330Z,35.30
2023-03-02T07:02:24.219Z,35.40
2023-03-02T07:05:38.078Z,38.50
2023-03-02T07:08:38.870Z,37.60
2023-03-02T07:11:47.201Z,38.00
2023-03-02T07:14:20.848Z,38.70
2023-03-02T07:17:42.145Z,38.40
2023-03-02T07:21:00.707Z,37.90
2023-03-02T07:24:20.287Z,36.40
2023-03-02T07:27:18.456Z,40.80
2023-03-02T07:30:29.473Z,38.30
2023-03-02T07:33:44.127Z,37.30
2023-03-02T07:36:58.775Z,36.00
2023-03-02T07:39:29.712Z,36.00
2023-03-02T07:43:00.843Z,37.00
2023-03-02T07:45:32.302Z,37.20
2023-03-02T07:48:43.086Z,34.50
2023-03-02T07:51:53.948Z,36.40
2023-03-02T07:54:27.749Z,36.00
2023-03-02T07:57:41.345Z,34.00
2023-03-02T08:00:20.928Z,34.70
2023-03-02T08:03:50.643Z,36.00
2023-03-02T08:07:24.525Z,36.20
2023-03-02T08:11:12.036Z,34.30
2023-03-02T08:15:02.569Z,33.10
2023-03-02T08:18:32.126Z,33.90
2023-03-02T08:21:29.499Z,32.40
2023-03-02T08:24:20.790Z,32.50
2023-03-02T08:27:05.137Z,32.70
2023-03-02T08:30:36.148Z,32.00
2023-03-02T08:34:24.923Z,31.70
2023-03-02T08:37:36.297Z,30.60
2023-03-02T08:41:07.725Z,30.50
2023-03-02T08:44:56.475Z,28.50
2023-03-02T08:48:45.284Z,28.90
2023-03-02T08:52:34.162Z,26.20
2023-03-02T08:56:17.378Z,25.40
2023-03-02T08:59:38.744Z,25.00
2023-03-02T09:03:17.409Z,26.30
2023-03-02T09:06:36.804Z,24.90
2023-03-02T09:10:18.427Z,22.70
2023-03-02T09:13:29.776Z,21.60
2023-03-02T09:16:58.604Z,20.80
2023-03-02T09:20:12.961Z,21.50
2023-03-02T09:23:21.411Z,18.90
2023-03-02T09:27:00.112Z,19.30
2023-03-02T09:30:29.522Z,17.80
2023-03-02T09:33:48.777Z,17.80
2023-03-02T09:37:27.396Z,16.50
2023-03-02T09:40:30.182Z,18.00
2023-03-02T09:43:44.664Z,17.60
2023-03-02T09:51:22.326Z,14.00
2023-03-02T09:54:52.437Z,14.30
2023-03-02T09:58:29.187Z,12.20
2023-03-02T10:02:23.541Z,13.40
2023-03-02T10:05:48.136Z,11.10
2023-03-02T10:09:16.909Z,10.70
2023-03-02T10:13:08.380Z,11.40
2023-03-02T10:16:39.462Z,10.40
2023-03-02T10:20:13.273Z,8.70
2023-03-02T10:23:40.630Z,9.60
2023-03-02T10:27:24.778Z,10.80
2023-03-02T10:30:58.225Z,11.70
2023-03-02T10:34:29.717Z,12.10
2023-03-02T10:37:14.276Z,10.40
2023-03-02T10:41:04.864Z,11.30
2023-03-02T10:44:37.883Z,9.60
2023-03-02T10:48:09.532Z,10.00
2023-03-02T10:51:40.718Z,10.40
2023-03-02T10:54:52.878Z,9.80
2023-03-02T10:58:37.330Z,9.40
2023-03-02T11:02:04.919Z,10.40
2023-03-02T11:05:35.866Z,10.60
2023-03-02T11:13:01.055Z,9.70
2023-03-02T11:16:28.733Z,9.10
2023-03-02T11:20:01.610Z,8.30
2023-03-02T11:23:46.033Z,9.30
2023-03-02T11:27:22.780Z,9.00
2023-03-02T11:31:01.860Z,7.50
2023-03-02T11:34:39.239Z,7.40
2023-03-02T11:38:16.744Z,7.00
2023-03-02T11:41:59.011Z,7.40
2023-03-02T11:45:37.898Z,8.00
2023-03-02T11:49:15.992Z,6.40
2023-03-02T11:52:50.463Z,7.00
2023-03-02T11:56:24.300Z,6.40
2023-03-02T12:00:03.969Z,6.80
2023-03-02T12:03:58.709Z,6.00
2023-03-02T12:07:27.979Z,6.80
2023-03-02T12:11:05.020Z,7.10
2023-03-02T12:15:06.041Z,7.30
2023-03-02T12:18:47.495Z,8.60
2023-03-02T12:22:12.401Z,9.10
2023-03-02T12:25:51.071Z,10.40
2023-03-02T12:29:44.208Z,9.30
2023-03-02T12:33:00.091Z,10.10
2023-03-02T12:36:33.800Z,10.20
2023-03-02T12:40:03.530Z,9.60
2023-03-02T12:43:31.731Z,10.50
2023-03-02T12:47:14.304Z,9.30
2023-03-02T12:50:20.977Z,9.90
2023-03-02T12:53:03.082Z,11.10
2023-03-02T12:55:49.996Z,11.50
2023-03-02T12:59:21.965Z,10.00
2023-03-02T13:02:28.425Z,9.80
2023-03-02T13:05:38.364Z,8.90
2023-03-02T13:08:59.760Z,10.00
2023-03-02T13:12:28.516Z,9.60
2023-03-02T13:15:57.784Z,9.20
2023-03-02T13:18:58.396Z,9.80
2023-03-02T13:22:19.733Z,9.20
2023-03-02T13:25:49.430Z,9.00
2023-03-02T13:29:19.166Z,9.30
2023-03-02T13:33:05.724Z,8.70
2023-03-02T13:36:37.104Z,7.50
2023-03-02T13:40:25.999Z,8.70
2023-03-02T13:44:07.282Z,8.40
2023-03-02T13:47:58.805Z,8.10
2023-03-02T13:51:51.986Z,9.20
2023-03-02T13:55:24.337Z,8.70
2023-03-02T13:58:42.609Z,9.20
2023-03-02T14:02:14.436Z,9.60
2023-03-02T14:05:55.919Z,9.40
2023-03-02T14:09:44.738Z,8.80
2023-03-02T14:13:26.144Z,8.10
2023-03-02T14:16:55.119Z,8.70
2023-03-02T14:20:04.920Z,8.90
2023-03-02T14:23:23.461Z,8.90
2023-03-02T14:27:12.233Z,8.30
2023-03-02T14:30:48.647Z,9.70
2023-03-02T14:34:10.647Z,9.00
2023-03-02T14:37:35.651Z,9.70
2023-03-02T14:41:10.229Z,8.80
2023-03-02T14:44:47.491Z,9.40
2023-03-02T14:48:18.617Z,10.70
2023-03-02T14:51:02.594Z,8.40
2023-03-02T14:54:16.857Z,10.30
2023-03-02T14:57:54.857Z,10.10
2023-03-02T15:01:27.835Z,9.70
2023-03-02T15:07:58.627Z,10.40
2023-03-02T15:11:47.696Z,10.80
2023-03-02T15:14:39.489Z,10.70
2023-03-02T15:17:40.801Z,11.10
2023-03-02T15:20:31.778Z,10.80
2023-03-02T15:23:49.370Z,10.60
2023-03-02T15:27:00.718Z,10.40
2023-03-02T15:30:21.768Z,11.50
2023-03-02T15:33:51.265Z,10.70
2023-03-02T15:37:22.149Z,11.10
2023-03-02T15:40:46.660Z,11.50
2023-03-02T15:44:35.858Z,10.40
2023-03-02T15:48:24.913Z,11.50
2023-03-02T15:51:49.350Z,11.80
2023-03-02T15:55:28.076Z,12.20
2023-03-02T15:58:25.142Z,11.90
2023-03-02T16:02:11.770Z,12.00
2023-03-02T16:05:43.307Z,12.50
2023-03-02T16:08:30.159Z,12.60
2023-03-02T16:12:19.004Z,11.80
2023-03-02T16:15:50.701Z,11.20
2023-03-02T16:19:11.265Z,12.10
2023-03-02T16:22:39.849Z,11.10
2023-03-02T16:26:14.388Z,11.70
2023-03-02T16:29:07.952Z,10.80
2023-03-02T16:32:20.381Z,11.70
2023-03-02T16:36:02.052Z,11.80
2023-03-02T16:39:40.845Z,11.50
2023-03-02T16:43:01.770Z,10.30
2023-03-02T16:46:07.079Z,11.60
2023-03-02T16:49:20.237Z,11.60
2023-03-02T16:52:51.194Z,11.70
2023-03-02T16:56:14.230Z,9.90
2023-03-02T16:59:48.348Z,11.50
2023-03-02T17:03:11.551Z,11.30
2023-03-02T17:05:42.746Z,10.60
2023-03-02T17:08:29.928Z,11.50
2023-03-02T17:11:21.600Z,11.10
2023-03-02T17:15:03.562Z,11.30
2023-03-02T17:18:32.567Z,11.50
2023-03-02T17:21:53.966Z,13.70
2023-03-02T17:25:25.744Z,12.70
2023-03-02T17:29:04.437Z,12.20
2023-03-02T17:32:33.112Z,13.10
2023-03-02T17:36:12.927Z,13.80
2023-03-02T17:39:51.675Z,14.20
2023-03-02T17:43:30.409Z,13.50
2023-03-02T17:47:09.183Z,13.60
2023-03-02T17:50:40.755Z,14.90
2023-03-02T17:54:29.536Z,14.30
2023-03-02T17:58:08.196Z,15.20
2023-03-02T18:01:57.128Z,16.10
2023-03-02T18:05:46.010Z,15.90
2023-03-02T18:09:14.720Z,15.10
2023-03-02T18:12:54.419Z,16.30
2023-03-02T18:16:25.998Z,17.70
2023-03-02T18:19:45.752Z,16.20
2023-03-02T18:23:05.954Z,16.40
2023-03-02T18:26:17.517Z,18.40
2023-03-02T18:29:16.016Z,17.90
2023-03-02T18:32:34.591Z,18.60
2023-03-02T18:35:42.235Z,18.80
2023-03-02T18:39:20.862Z,18.90
2023-03-02T18:42:57.009Z,20.30
2023-03-02T18:46:01.916Z,21.60
2023-03-02T18:49:32.223Z,21.30
2023-03-02T18:53:12.854Z,21.20
2023-03-02T18:55:44.319Z,22.40
2023-03-02T18:58:24.101Z,20.80
2023-03-02T19:01:06.550Z,24.10
2023-03-02T19:07:00.791Z,23.70
2023-03-02T19:09:40.381Z,24.80
2023-03-02T19:13:12.533Z,25.30
2023-03-02T19:16:42.794Z,26.90
2023-03-02T19:19:45.804Z,25.70
2023-03-02T19:23:14.397Z,25.40
2023-03-02T19:26:44.436Z,26.00
2023-03-02T19:32:36.134Z,28.00
2023-03-02T19:35:04.513Z,28.50
2023-03-02T19:38:25.897Z,28.80
2023-03-02T19:41:27.941Z,28.50
2023-03-02T19:43:56.064Z,30.60
2023-03-02T19:47:04.546Z,31.40
2023-03-02T19:50:43.376Z,30.80
2023-03-02T19:53:34.777Z,32.50
2023-03-02T19:56:40.004Z,32.10
2023-03-02T19:59:40.503Z,32.90
2023-03-02T20:03:11.914Z,34.80
2023-03-02T20:06:25.433Z,34.30
2023-03-02T20:09:56.410Z,33.10
2023-03-02T20:12:47.535Z,34.80
2023-03-02T20:15:19.379Z,35.10
2023-03-02T20:17:59.389Z,37.50
2023-03-02T20:20:42.790Z,34.10
2023-03-02T20:23:55.845Z,36.10
2023-03-02T20:26:42.886Z,37.90
2023-03-02T20:30:16.693Z,37.10
2023-03-02T20:33:22.421Z,36.30
2023-03-02T20:36:45.579Z,35.60
2023-03-02T20:40:07.836Z,37.50
2023-03-02T20:43:02.065Z,36.30
2023-03-02T20:46:26.429Z,36.60
2023-03-02T20:49:12.049Z,36.50
2023-03-02T20:52:51.833Z,37.20
2023-03-02T20:55:55.983Z,36.40
2023-03-02T20:59:15.748Z,36.50
2023-03-02T21:03:04.565Z,37.00
2023-03-02T21:06:42.480Z,37.40
2023-03-02T21:10:12.321Z,36.90
2023-03-02T21:13:48.288Z,37.60
2023-03-02T21:17:27.221Z,40.60
2023-03-02T21:20:18.376Z,37.60
2023-03-02T21:24:07.307Z,38.00
2023-03-02T21:27:38.111Z,39.70
2023-03-02T21:30:30.507Z,40.20
2023-03-02T21:33:41.901Z,38.80
2023-03-02T21:37:00.809Z,38.80
2023-03-02T21:40:39.564Z,38.30
2023-03-02T21:43:56.289Z,37.40
2023-03-02T21:47:15.707Z,39.00
2023-03-02T21:50:27.271Z,38.30
2023-03-02T21:53:55.639Z,42.30
2023-03-02T21:57:24.262Z,38.10
2023-03-02T22:00:51.038Z,38.50
2023-03-02T22:04:19.740Z,40.70
2023-03-02T22:06:50.232Z,39.50
2023-03-02T22:09:52.931Z,43.70
2023-03-02T22:12:52.764Z,40.30
2023-03-02T22:15:24.517Z,39.60
2023-03-02T22:18:33.003Z,42.00
2023-03-02T22:21:01.744Z,40.80
2023-03-02T22:23:38.040Z,42.40
2023-03-02T22:26:30.847Z,39.40
2023-03-02T22:29:18.262Z,40.90
2023-03-02T22:32:54.877Z,41.70
2023-03-02T22:35:39.272Z,40.30
2023-03-02T22:38:36.925Z,41.00
2023-03-02T22:41:26.686Z,42.10
2023-03-02T22:44:00.731Z,40.80
2023-03-02T22:46:28.574Z,41.70
2023-03-02T22:49:07.405Z,42.20
2023-03-02T22:51:35.699Z,41.80
2023-03-02T22:54:30.321Z,40.50
2023-03-02T22:57:54.339Z,40.50
2023-03-02T23:00:54.986Z,40.90
2023-03-02T23:03:44.293Z,41.50
2023-03-02T23:06:32.352Z,42.10
2023-03-02T23:09:36.690Z,39.60
2023-03-02T23:12:19.755Z,39.90
2023-03-02T23:15:43.079Z,46.00
2023-03-02T23:18:15.387Z,43.20
2023-03-02T23:21:22.930Z,42.60
2023-03-02T23:24:04.747Z,44.60
2023-03-02T23:26:33.045Z,42.10
2023-03-02T23:29:31.291Z,42.30
2023-03-02T23:32:19.805Z,43.20
2023-03-02T23:35:38.481Z,44.60
2023-03-02T23:39:10.258Z,42.30
2023-03-02T23:42:12.497Z,41.50
2023-03-02T23:44:43.383Z,39.40
2023-03-02T23:47:40.878Z,40.10
2023-03-02T23:50:32.935Z,35.60
2023-03-02T23:53:52.735Z,36.90
2023-03-02T23:56:45.419Z,34.90
2023-03-02T23:59:13.539Z,38.40
